sensor_id;sensor_type;location;lat;lon;timestamp;pressure;altitude;pressure_sealevel;temperature;humidity
31717;BME280;18301;51.076;17.046;2023-01-26T00:04:10;100933.00;;;3.95;86.70
31717;BME280;18301;51.076;17.046;2023-01-26T00:09:12;100929.59;;;3.91;86.73
31717;BME280;18301;51.076;17.046;2023-01-26T00:14:15;100932.38;;;3.88;87.05
31717;BME280;18301;51.076;17.046;2023-01-26T00:19:17;100923.38;;;3.91;86.93
31717;BME280;18301;51.076;17.046;2023-01-26T00:24:18;100921.69;;;3.88;86.59
31717;BME280;18301;51.076;17.046;2023-01-26T00:29:20;100929.94;;;3.82;87.56
31717;BME280;18301;51.076;17.046;2023-01-26T00:34:21;100920.97;;;3.83;87.58
31717;BME280;18301;51.076;17.046;2023-01-26T00:39:23;100908.56;;;3.82;87.46
31717;BME280;18301;51.076;17.046;2023-01-26T00:44:24;100911.91;;;3.87;87.59
31717;BME280;18301;51.076;17.046;2023-01-26T00:49:25;100906.56;;;3.87;86.59
31717;BME280;18301;51.076;17.046;2023-01-26T00:54:27;100913.44;;;3.95;87.11
31717;BME280;18301;51.076;17.046;2023-01-26T00:59:29;100913.06;;;3.82;87.44
31717;BME280;18301;51.076;17.046;2023-01-26T01:04:32;100920.50;;;3.72;86.94
31717;BME280;18301;51.076;17.046;2023-01-26T01:09:34;100915.00;;;3.77;86.83
31717;BME280;18301;51.076;17.046;2023-01-26T01:14:35;100909.03;;;3.70;86.69
31717;BME280;18301;51.076;17.046;2023-01-26T01:19:37;100906.28;;;3.72;87.31
31717;BME280;18301;51.076;17.046;2023-01-26T01:24:38;100908.72;;;3.78;86.96
31717;BME280;18301;51.076;17.046;2023-01-26T01:29:39;100908.31;;;3.65;86.46
31717;BME280;18301;51.076;17.046;2023-01-26T01:34:41;100908.09;;;3.71;86.96
31717;BME280;18301;51.076;17.046;2023-01-26T01:39:42;100899.84;;;3.77;86.69
31717;BME280;18301;51.076;17.046;2023-01-26T01:44:45;100890.28;;;3.72;86.71
31717;BME280;18301;51.076;17.046;2023-01-26T01:50:14;100877.78;;;3.72;87.03
31717;BME280;18301;51.076;17.046;2023-01-26T01:55:17;100877.41;;;3.83;87.02
31717;BME280;18301;51.076;17.046;2023-01-26T02:00:21;100873.78;;;3.84;86.83
31717;BME280;18301;51.076;17.046;2023-01-26T02:05:26;100863.00;;;3.87;86.18
31717;BME280;18301;51.076;17.046;2023-01-26T02:10:32;100855.97;;;3.84;86.49
31717;BME280;18301;51.076;17.046;2023-01-26T02:15:34;100852.28;;;3.88;86.62
31717;BME280;18301;51.076;17.046;2023-01-26T02:20:46;100838.41;;;3.79;86.35
31717;BME280;18301;51.076;17.046;2023-01-26T02:30:53;100837.72;;;3.74;86.50
31717;BME280;18301;51.076;17.046;2023-01-26T02:35:56;100822.69;;;3.71;85.67
31717;BME280;18301;51.076;17.046;2023-01-26T02:41:02;100821.38;;;3.81;84.89
31717;BME280;18301;51.076;17.046;2023-01-26T02:46:05;100809.09;;;3.77;84.86
31717;BME280;18301;51.076;17.046;2023-01-26T02:51:07;100805.25;;;3.84;85.07
31717;BME280;18301;51.076;17.046;2023-01-26T02:56:08;100798.78;;;3.68;84.91
31717;BME280;18301;51.076;17.046;2023-01-26T03:01:10;100803.19;;;3.69;84.48
31717;BME280;18301;51.076;17.046;2023-01-26T03:06:12;100805.09;;;3.65;84.21
31717;BME280;18301;51.076;17.046;2023-01-26T03:11:13;100791.13;;;3.59;83.61
31717;BME280;18301;51.076;17.046;2023-01-26T03:16:15;100778.41;;;3.65;83.41
31717;BME280;18301;51.076;17.046;2023-01-26T03:21:18;100780.41;;;3.60;82.55
31717;BME280;18301;51.076;17.046;2023-01-26T03:26:39;100772.31;;;3.62;81.20
31717;BME280;18301;51.076;17.046;2023-01-26T03:31:59;100773.63;;;3.52;80.02
31717;BME280;18301;51.076;17.046;2023-01-26T03:37:01;100765.03;;;3.20;79.20
31717;BME280;18301;51.076;17.046;2023-01-26T03:42:03;100758.19;;;3.13;79.90
31717;BME280;18301;51.076;17.046;2023-01-26T03:47:23;100752.41;;;3.25;79.83
31717;BME280;18301;51.076;17.046;2023-01-26T03:52:43;100742.75;;;3.44;79.36
31717;BME280;18301;51.076;17.046;2023-01-26T03:58:03;100739.59;;;3.57;79.04
31717;BME280;18301;51.076;17.046;2023-01-26T04:03:05;100743.09;;;3.35;77.25
31717;BME280;18301;51.076;17.046;2023-01-26T04:08:25;100743.09;;;3.35;78.38
31717;BME280;18301;51.076;17.046;2023-01-26T04:13:29;100748.31;;;3.38;78.79
31717;BME280;18301;51.076;17.046;2023-01-26T04:18:49;100745.00;;;3.33;78.94
31717;BME280;18301;51.076;17.046;2023-01-26T04:24:09;100743.09;;;3.35;78.73
31717;BME280;18301;51.076;17.046;2023-01-26T04:29:17;100737.53;;;3.41;78.86
31717;BME280;18301;51.076;17.046;2023-01-26T04:34:19;100737.41;;;3.44;77.08
31717;BME280;18301;51.076;17.046;2023-01-26T04:39:20;100744.41;;;3.49;76.67
31717;BME280;18301;51.076;17.046;2023-01-26T04:44:22;100730.34;;;3.43;77.20
31717;BME280;18301;51.076;17.046;2023-01-26T04:49:23;100718.19;;;3.36;75.89
31717;BME280;18301;51.076;17.046;2023-01-26T04:54:24;100707.16;;;3.45;75.67
31717;BME280;18301;51.076;17.046;2023-01-26T04:59:26;100709.00;;;3.43;75.81
31717;BME280;18301;51.076;17.046;2023-01-26T05:04:28;100708.03;;;3.46;76.07
31717;BME280;18301;51.076;17.046;2023-01-26T05:09:29;100702.38;;;3.54;75.42
31717;BME280;18301;51.076;17.046;2023-01-26T05:14:31;100699.56;;;3.57;75.56
31717;BME280;18301;51.076;17.046;2023-01-26T05:19:32;100698.56;;;3.37;75.48
31717;BME280;18301;51.076;17.046;2023-01-26T05:24:34;100701.81;;;3.23;75.83
31717;BME280;18301;51.076;17.046;2023-01-26T05:29:35;100705.50;;;3.19;75.73
31717;BME280;18301;51.076;17.046;2023-01-26T05:34:37;100704.13;;;3.33;75.47
31717;BME280;18301;51.076;17.046;2023-01-26T05:39:38;100687.91;;;3.37;74.73
31717;BME280;18301;51.076;17.046;2023-01-26T05:44:40;100704.25;;;3.52;74.43
31717;BME280;18301;51.076;17.046;2023-01-26T05:49:41;100696.38;;;3.49;73.94
31717;BME280;18301;51.076;17.046;2023-01-26T05:54:46;100699.03;;;3.49;73.84
31717;BME280;18301;51.076;17.046;2023-01-26T05:59:47;100695.50;;;3.48;73.98
31717;BME280;18301;51.076;17.046;2023-01-26T06:04:49;100686.41;;;3.30;73.93
31717;BME280;18301;51.076;17.046;2023-01-26T06:09:51;100686.78;;;3.21;74.22
31717;BME280;18301;51.076;17.046;2023-01-26T06:14:52;100676.47;;;3.12;74.38
31717;BME280;18301;51.076;17.046;2023-01-26T06:19:54;100671.38;;;3.06;74.79
31717;BME280;18301;51.076;17.046;2023-01-26T06:24:55;100680.63;;;2.95;75.04
31717;BME280;18301;51.076;17.046;2023-01-26T06:29:57;100673.44;;;2.97;74.82
31717;BME280;18301;51.076;17.046;2023-01-26T06:34:58;100680.41;;;3.02;75.09
31717;BME280;18301;51.076;17.046;2023-01-26T06:40:00;100683.88;;;3.04;75.26
31717;BME280;18301;51.076;17.046;2023-01-26T06:45:01;100679.50;;;3.03;74.76
31717;BME280;18301;51.076;17.046;2023-01-26T06:50:03;100690.94;;;3.05;74.57
31717;BME280;18301;51.076;17.046;2023-01-26T06:55:04;100685.38;;;3.11;75.14
31717;BME280;18301;51.076;17.046;2023-01-26T07:00:07;100681.44;;;3.21;74.49
31717;BME280;18301;51.076;17.046;2023-01-26T07:05:08;100696.28;;;3.28;74.16
31717;BME280;18301;51.076;17.046;2023-01-26T07:10:12;100688.91;;;3.35;74.11
31717;BME280;18301;51.076;17.046;2023-01-26T07:15:14;100687.78;;;3.40;73.73
31717;BME280;18301;51.076;17.046;2023-01-26T07:20:15;100695.06;;;3.37;74.13
31717;BME280;18301;51.076;17.046;2023-01-26T07:25:17;100701.94;;;3.42;74.44
31717;BME280;18301;51.076;17.046;2023-01-26T07:30:19;100697.50;;;3.41;75.31
31717;BME280;18301;51.076;17.046;2023-01-26T07:35:20;100680.72;;;3.39;75.94
31717;BME280;18301;51.076;17.046;2023-01-26T07:40:22;100683.16;;;3.45;76.00
31717;BME280;18301;51.076;17.046;2023-01-26T07:45:23;100665.25;;;3.47;75.99
31717;BME280;18301;51.076;17.046;2023-01-26T07:50:24;100671.53;;;3.46;76.58
31717;BME280;18301;51.076;17.046;2023-01-26T07:55:27;100682.69;;;3.34;76.04
31717;BME280;18301;51.076;17.046;2023-01-26T08:00:29;100681.56;;;3.18;76.47
31717;BME280;18301;51.076;17.046;2023-01-26T08:05:30;100671.13;;;3.12;76.90
31717;BME280;18301;51.076;17.046;2023-01-26T08:10:32;100675.97;;;3.02;77.52
31717;BME280;18301;51.076;17.046;2023-01-26T08:15:34;100678.56;;;3.04;77.37
31717;BME280;18301;51.076;17.046;2023-01-26T08:20:35;100676.81;;;3.03;77.29
31717;BME280;18301;51.076;17.046;2023-01-26T08:25:37;100676.13;;;2.97;77.00
31717;BME280;18301;51.076;17.046;2023-01-26T08:30:38;100678.66;;;3.00;77.18
31717;BME280;18301;51.076;17.046;2023-01-26T08:35:40;100675.97;;;3.02;77.28
31717;BME280;18301;51.076;17.046;2023-01-26T08:40:41;100674.94;;;3.05;77.33
31717;BME280;18301;51.076;17.046;2023-01-26T08:45:46;100674.19;;;3.01;77.04
31717;BME280;18301;51.076;17.046;2023-01-26T08:50:47;100677.72;;;3.02;77.33
31717;BME280;18301;51.076;17.046;2023-01-26T08:55:53;100687.28;;;3.07;76.53
31717;BME280;18301;51.076;17.046;2023-01-26T09:00:54;100679.66;;;3.21;76.32
31717;BME280;18301;51.076;17.046;2023-01-26T09:05:58;100685.44;;;3.33;76.36
31717;BME280;18301;51.076;17.046;2023-01-26T09:11:00;100693.94;;;3.42;75.42
31717;BME280;18301;51.076;17.046;2023-01-26T09:16:03;100697.72;;;3.59;75.21
31717;BME280;18301;51.076;17.046;2023-01-26T09:21:07;100692.63;;;3.53;74.36
31717;BME280;18301;51.076;17.046;2023-01-26T09:26:08;100679.16;;;3.56;74.49
31717;BME280;18301;51.076;17.046;2023-01-26T09:31:11;100676.25;;;3.62;73.85
31717;BME280;18301;51.076;17.046;2023-01-26T09:36:12;100675.94;;;3.47;74.09
31717;BME280;18301;51.076;17.046;2023-01-26T09:41:39;100668.56;;;3.54;74.24
31717;BME280;18301;51.076;17.046;2023-01-26T09:47:06;100669.19;;;3.61;72.58
31717;BME280;18301;51.076;17.046;2023-01-26T09:52:34;100670.34;;;3.54;74.21
31717;BME280;18301;51.076;17.046;2023-01-26T09:57:45;100668.31;;;3.60;73.40
31717;BME280;18301;51.076;17.046;2023-01-26T10:02:59;100660.63;;;3.53;74.23
31717;BME280;18301;51.076;17.046;2023-01-26T10:08:03;100651.75;;;3.52;73.79
31717;BME280;18301;51.076;17.046;2023-01-26T10:13:11;100641.50;;;3.63;73.50
31717;BME280;18301;51.076;17.046;2023-01-26T10:18:18;100635.97;;;3.68;71.85
31717;BME280;18301;51.076;17.046;2023-01-26T10:23:27;100645.69;;;3.69;72.68
31717;BME280;18301;51.076;17.046;2023-01-26T10:28:31;100643.00;;;3.49;72.45
31717;BME280;18301;51.076;17.046;2023-01-26T10:33:36;100632.06;;;3.77;72.61
31717;BME280;18301;51.076;17.046;2023-01-26T10:38:40;100635.13;;;3.23;72.25
31717;BME280;18301;51.076;17.046;2023-01-26T10:43:51;100626.09;;;3.26;73.95
31717;BME280;18301;51.076;17.046;2023-01-26T10:48:56;100629.59;;;3.50;73.08
31717;BME280;18301;51.076;17.046;2023-01-26T10:54:21;100641.88;;;3.76;73.10
31717;BME280;18301;51.076;17.046;2023-01-26T10:59:33;100641.75;;;3.79;71.66
31717;BME280;18301;51.076;17.046;2023-01-26T11:04:35;100635.16;;;3.66;72.36
31717;BME280;18301;51.076;17.046;2023-01-26T11:09:36;100639.72;;;3.84;72.12
31717;BME280;18301;51.076;17.046;2023-01-26T11:14:38;100625.06;;;3.95;72.28
31717;BME280;18301;51.076;17.046;2023-01-26T11:19:55;100615.44;;;4.11;71.71
31717;BME280;18301;51.076;17.046;2023-01-26T11:40:49;100592.91;;;3.98;71.87
31717;BME280;18301;51.076;17.046;2023-01-26T11:56:15;100583.16;;;3.76;72.83
31717;BME280;18301;51.076;17.046;2023-01-26T12:01:28;100580.09;;;3.85;71.82
31717;BME280;18301;51.076;17.046;2023-01-26T12:06:39;100573.88;;;3.85;72.53
31717;BME280;18301;51.076;17.046;2023-01-26T12:11:50;100561.84;;;3.75;71.96
31717;BME280;18301;51.076;17.046;2023-01-26T12:17:17;100566.03;;;3.60;73.02
31717;BME280;18301;51.076;17.046;2023-01-26T12:22:30;100549.44;;;3.74;72.34
31717;BME280;18301;51.076;17.046;2023-01-26T12:27:41;100561.41;;;3.85;72.31
31717;BME280;18301;51.076;17.046;2023-01-26T12:32:43;100553.91;;;3.73;72.45
31717;BME280;18301;51.076;17.046;2023-01-26T12:37:54;100557.09;;;3.81;73.06
31717;BME280;18301;51.076;17.046;2023-01-26T12:48:27;100545.91;;;3.73;73.42
31717;BME280;18301;51.076;17.046;2023-01-26T12:53:41;100544.03;;;3.75;72.87
31717;BME280;18301;51.076;17.046;2023-01-26T12:58:48;100542.56;;;3.68;72.84
31717;BME280;18301;51.076;17.046;2023-01-26T13:03:57;100523.19;;;3.63;72.40
31717;BME280;18301;51.076;17.046;2023-01-26T13:09:20;100532.16;;;3.62;73.51
31717;BME280;18301;51.076;17.046;2023-01-26T13:24:45;100525.47;;;3.72;73.25
31717;BME280;18301;51.076;17.046;2023-01-26T13:29:52;100527.75;;;3.81;72.67
31717;BME280;18301;51.076;17.046;2023-01-26T13:34:56;100529.22;;;3.88;72.30
31717;BME280;18301;51.076;17.046;2023-01-26T13:40:03;100535.88;;;3.78;73.02
31717;BME280;18301;51.076;17.046;2023-01-26T13:45:49;100531.22;;;3.83;72.30
31717;BME280;18301;51.076;17.046;2023-01-26T13:50:58;100539.91;;;3.88;72.12
31717;BME280;18301;51.076;17.046;2023-01-26T13:56:02;100518.13;;;3.77;71.49
31717;BME280;18301;51.076;17.046;2023-01-26T14:01:09;100528.22;;;3.71;71.99
31717;BME280;18301;51.076;17.046;2023-01-26T14:06:19;100520.53;;;3.63;72.75
31717;BME280;18301;51.076;17.046;2023-01-26T14:11:25;100515.59;;;3.54;72.82
31717;BME280;18301;51.076;17.046;2023-01-26T14:16:32;100514.69;;;3.55;72.59
31717;BME280;18301;51.076;17.046;2023-01-26T14:21:54;100521.59;;;3.59;72.44
31717;BME280;18301;51.076;17.046;2023-01-26T14:26:56;100518.53;;;3.68;72.52
31717;BME280;18301;51.076;17.046;2023-01-26T14:31:58;100520.25;;;3.69;72.40
31717;BME280;18301;51.076;17.046;2023-01-26T14:37:11;100523.47;;;3.57;72.77
31717;BME280;18301;51.076;17.046;2023-01-26T14:42:16;100520.78;;;3.57;72.32
31717;BME280;18301;51.076;17.046;2023-01-26T14:47:25;100522.47;;;3.59;72.24
31717;BME280;18301;51.076;17.046;2023-01-26T14:52:31;100510.25;;;3.54;72.89
31717;BME280;18301;51.076;17.046;2023-01-26T14:57:39;100511.19;;;3.53;72.16
31717;BME280;18301;51.076;17.046;2023-01-26T15:02:42;100510.34;;;3.52;72.89
31717;BME280;18301;51.076;17.046;2023-01-26T15:07:54;100506.53;;;3.58;72.66
31717;BME280;18301;51.076;17.046;2023-01-26T15:23:23;100513.69;;;3.57;72.51
31717;BME280;18301;51.076;17.046;2023-01-26T15:28:26;100518.13;;;3.57;71.98
31717;BME280;18301;51.076;17.046;2023-01-26T15:38:45;100514.81;;;3.52;72.73
31717;BME280;18301;51.076;17.046;2023-01-26T15:43:47;100516.28;;;3.59;72.28
31717;BME280;18301;51.076;17.046;2023-01-26T15:48:48;100519.88;;;3.58;72.34
31717;BME280;18301;51.076;17.046;2023-01-26T15:53:50;100514.81;;;3.52;72.69
31717;BME280;18301;51.076;17.046;2023-01-26T15:58:51;100520.28;;;3.49;72.33
31717;BME280;18301;51.076;17.046;2023-01-26T16:03:53;100511.47;;;3.46;73.25
31717;BME280;18301;51.076;17.046;2023-01-26T16:08:55;100513.06;;;3.51;73.17
31717;BME280;18301;51.076;17.046;2023-01-26T16:13:57;100517.41;;;3.53;72.64
31717;BME280;18301;51.076;17.046;2023-01-26T16:19:04;100512.91;;;3.54;72.77
31717;BME280;18301;51.076;17.046;2023-01-26T16:24:06;100511.31;;;3.50;73.13
31717;BME280;18301;51.076;17.046;2023-01-26T16:29:07;100526.22;;;3.55;72.96
31717;BME280;18301;51.076;17.046;2023-01-26T16:34:09;100517.88;;;3.42;73.05
31717;BME280;18301;51.076;17.046;2023-01-26T16:39:10;100513.44;;;3.41;73.09
31717;BME280;18301;51.076;17.046;2023-01-26T16:44:13;100522.38;;;3.40;73.70
31717;BME280;18301;51.076;17.046;2023-01-26T16:49:15;100517.88;;;3.42;73.70
31717;BME280;18301;51.076;17.046;2023-01-26T16:54:17;100520.66;;;3.39;73.43
31717;BME280;18301;51.076;17.046;2023-01-26T16:59:18;100520.66;;;3.39;73.49
31717;BME280;18301;51.076;17.046;2023-01-26T17:04:19;100522.38;;;3.40;73.75
31717;BME280;18301;51.076;17.046;2023-01-26T17:09:21;100526.78;;;3.41;73.65
31717;BME280;18301;51.076;17.046;2023-01-26T17:14:24;100529.31;;;3.44;73.34
31717;BME280;18301;51.076;17.046;2023-01-26T17:19:25;100531.22;;;3.42;73.13
31717;BME280;18301;51.076;17.046;2023-01-26T17:24:27;100533.00;;;3.42;73.32
31717;BME280;18301;51.076;17.046;2023-01-26T17:29:28;100535.84;;;3.37;73.05
31717;BME280;18301;51.076;17.046;2023-01-26T17:34:30;100538.53;;;3.37;72.88
31717;BME280;18301;51.076;17.046;2023-01-26T17:39:31;100538.66;;;3.34;73.51
31717;BME280;18301;51.076;17.046;2023-01-26T17:44:33;100527.72;;;3.40;73.63
31717;BME280;18301;51.076;17.046;2023-01-26T17:49:35;100529.56;;;3.38;73.56
31717;BME280;18301;51.076;17.046;2023-01-26T17:54:37;100534.91;;;3.38;73.33
31717;BME280;18301;51.076;17.046;2023-01-26T17:59:40;100521.66;;;3.37;73.46
31717;BME280;18301;51.076;17.046;2023-01-26T18:04:41;100523.25;;;3.41;73.31
31717;BME280;18301;51.076;17.046;2023-01-26T18:09:43;100522.38;;;3.40;73.14
31717;BME280;18301;51.076;17.046;2023-01-26T18:14:44;100516.25;;;3.38;73.43
31717;BME280;18301;51.076;17.046;2023-01-26T18:19:46;100521.59;;;3.16;73.71
31717;BME280;18301;51.076;17.046;2023-01-26T18:24:47;100524.88;;;3.23;73.60
31717;BME280;18301;51.076;17.046;2023-01-26T18:29:48;100528.50;;;3.22;74.14
31717;BME280;18301;51.076;17.046;2023-01-26T18:34:50;100527.63;;;3.21;73.48
31717;BME280;18301;51.076;17.046;2023-01-26T18:39:51;100529.22;;;3.26;73.91
31717;BME280;18301;51.076;17.046;2023-01-26T18:44:53;100528.38;;;3.25;74.09
31717;BME280;18301;51.076;17.046;2023-01-26T18:50:01;100540.75;;;3.26;74.04
31717;BME280;18301;51.076;17.046;2023-01-26T18:55:03;100541.53;;;3.30;74.36
31717;BME280;18301;51.076;17.046;2023-01-26T19:00:05;100545.97;;;3.29;74.31
31717;BME280;18301;51.076;17.046;2023-01-26T19:05:08;100551.03;;;3.35;73.82
31717;BME280;18301;51.076;17.046;2023-01-26T19:10:10;100551.44;;;3.26;74.03
31717;BME280;18301;51.076;17.046;2023-01-26T19:15:11;100548.03;;;3.22;74.33
31717;BME280;18301;51.076;17.046;2023-01-26T19:20:13;100553.09;;;3.29;73.95
31717;BME280;18301;51.076;17.046;2023-01-26T19:25:15;100559.44;;;3.26;74.26
31717;BME280;18301;51.076;17.046;2023-01-26T19:30:17;100555.59;;;3.33;74.07
31717;BME280;18301;51.076;17.046;2023-01-26T19:35:19;100563.84;;;3.27;74.48
31717;BME280;18301;51.076;17.046;2023-01-26T19:40:22;100555.97;;;3.24;74.33
31717;BME280;18301;51.076;17.046;2023-01-26T19:45:26;100554.72;;;3.33;74.57
31717;BME280;18301;51.076;17.046;2023-01-26T19:50:27;100561.59;;;3.38;74.34
31717;BME280;18301;51.076;17.046;2023-01-26T19:55:31;100548.13;;;3.41;74.38
31717;BME280;18301;51.076;17.046;2023-01-26T20:00:32;100555.25;;;3.41;74.65
31717;BME280;18301;51.076;17.046;2023-01-26T20:05:35;100549.19;;;3.37;74.97
31717;BME280;18301;51.076;17.046;2023-01-26T20:10:37;100548.22;;;3.40;75.40
31717;BME280;18301;51.076;17.046;2023-01-26T20:15:38;100540.13;;;3.41;75.97
31717;BME280;18301;51.076;17.046;2023-01-26T20:20:40;100541.00;;;3.42;76.11
31717;BME280;18301;51.076;17.046;2023-01-26T20:25:42;100539.38;;;3.38;76.40
31717;BME280;18301;51.076;17.046;2023-01-26T20:30:44;100538.78;;;3.31;76.65
31717;BME280;18301;51.076;17.046;2023-01-26T20:35:45;100549.56;;;3.28;76.65
31717;BME280;18301;51.076;17.046;2023-01-26T20:40:47;100543.69;;;3.20;77.25
31717;BME280;18301;51.076;17.046;2023-01-26T20:45:48;100544.88;;;3.13;77.58
31717;BME280;18301;51.076;17.046;2023-01-26T20:50:50;100541.13;;;3.17;78.01
31717;BME280;18301;51.076;17.046;2023-01-26T20:55:57;100533.94;;;3.19;78.26
31717;BME280;18301;51.076;17.046;2023-01-26T21:01:03;100535.41;;;3.06;78.13
31717;BME280;18301;51.076;17.046;2023-01-26T21:06:09;100529.06;;;3.08;78.67
31717;BME280;18301;51.076;17.046;2023-01-26T21:11:13;100530.72;;;3.11;79.14
31717;BME280;18301;51.076;17.046;2023-01-26T21:16:15;100523.53;;;3.13;78.99
31717;BME280;18301;51.076;17.046;2023-01-26T21:21:18;100528.75;;;3.16;79.35
31717;BME280;18301;51.076;17.046;2023-01-26T21:26:22;100531.63;;;3.11;79.31
31717;BME280;18301;51.076;17.046;2023-01-26T21:31:26;100526.28;;;3.11;80.77
31717;BME280;18301;51.076;17.046;2023-01-26T21:36:29;100526.34;;;3.10;80.92
31717;BME280;18301;51.076;17.046;2023-01-26T21:41:32;100516.53;;;3.10;81.07
31717;BME280;18301;51.076;17.046;2023-01-26T21:47:01;100522.19;;;3.03;81.83
31717;BME280;18301;51.076;17.046;2023-01-26T21:52:03;100513.25;;;3.04;82.00
31717;BME280;18301;51.076;17.046;2023-01-26T21:57:23;100511.41;;;3.06;82.60
31717;BME280;18301;51.076;17.046;2023-01-26T22:02:47;100512.25;;;3.06;82.47
31717;BME280;18301;51.076;17.046;2023-01-26T22:07:48;100510.28;;;3.11;83.49
31717;BME280;18301;51.076;17.046;2023-01-26T22:12:50;100509.13;;;3.17;83.74
31717;BME280;18301;51.076;17.046;2023-01-26T22:17:51;100500.22;;;3.18;83.61
31717;BME280;18301;51.076;17.046;2023-01-26T22:22:53;100508.09;;;3.21;84.61
31717;BME280;18301;51.076;17.046;2023-01-26T22:27:54;100500.22;;;3.18;84.29
31717;BME280;18301;51.076;17.046;2023-01-26T22:32:56;100503.56;;;3.23;84.66
31717;BME280;18301;51.076;17.046;2023-01-26T22:37:58;100497.19;;;3.27;84.97
31717;BME280;18301;51.076;17.046;2023-01-26T22:43:00;100503.97;;;3.34;84.70
31717;BME280;18301;51.076;17.046;2023-01-26T22:48:01;100496.78;;;3.36;84.99
31717;BME280;18301;51.076;17.046;2023-01-26T22:53:03;100491.03;;;3.25;84.83
31717;BME280;18301;51.076;17.046;2023-01-26T22:58:04;100490.69;;;3.12;85.18
31717;BME280;18301;51.076;17.046;2023-01-26T23:03:06;100500.22;;;3.18;84.71
31717;BME280;18301;51.076;17.046;2023-01-26T23:08:07;100496.63;;;3.19;85.00
31717;BME280;18301;51.076;17.046;2023-01-26T23:13:09;100501.25;;;3.14;85.42
31717;BME280;18301;51.076;17.046;2023-01-26T23:18:10;100493.53;;;3.08;85.65
31717;BME280;18301;51.076;17.046;2023-01-26T23:23:11;100495.28;;;3.09;85.74
31717;BME280;18301;51.076;17.046;2023-01-26T23:28:13;100492.78;;;3.04;85.69
31717;BME280;18301;51.076;17.046;2023-01-26T23:33:16;100495.44;;;3.04;86.10
31717;BME280;18301;51.076;17.046;2023-01-26T23:38:19;100500.88;;;3.03;85.71
31717;BME280;18301;51.076;17.046;2023-01-26T23:43:22;100501.94;;;3.19;85.67
31717;BME280;18301;51.076;17.046;2023-01-26T23:48:24;100496.97;;;3.11;85.45
31717;BME280;18301;51.076;17.046;2023-01-26T23:53:26;100496.28;;;3.06;85.48
31717;BME280;18301;51.076;17.046;2023-01-26T23:58:28;100504.44;;;3.02;86.24
